Fort Worth - NOAA's Hourly Summary for Sunday, March 19, 2017
Hour Temp
(f)
RH
(%)
Solar Rad.
(MJ/m2)
Rainfall
(in)
Wind
(mph)
3/19/2017 12:00 AM 68 75 0 0 1.68
3/19/2017 1:00 AM 68 77 0 0 2.69
3/19/2017 2:00 AM 66 79 0 0 2.59
3/19/2017 3:00 AM 65 81 0 0 2.59
3/19/2017 4:00 AM 65 83 0 0 3.48
3/19/2017 5:00 AM 67 82 0 0 5.91
3/19/2017 6:00 AM 66 84 0 0 5.06
3/19/2017 7:00 AM 65 87 0.01 0 4.06
3/19/2017 8:00 AM 66 87 0.27 0 6.99
3/19/2017 9:00 AM 65 89 0.39 0 6.03
3/19/2017 10:00 AM 71 78 1.67 0 6.31
3/19/2017 11:00 AM 76 67 2.27 0 5.87
3/19/2017 12:00 PM 78 62 2.43 0 6.46
3/19/2017 1:00 PM 80 57 2.9 0 7.34
3/19/2017 2:00 PM 81 53 2.34 0 8.2
3/19/2017 3:00 PM 83 49 2.48 0 8.34
3/19/2017 4:00 PM 84 46 2.14 0 8.64
3/19/2017 5:00 PM 83 47 1.53 0 8.31
3/19/2017 6:00 PM 82 48 0.8 0 10.38
3/19/2017 7:00 PM 80 50 0.13 0 8.5
3/19/2017 8:00 PM 78 53 0 0 6.93
3/19/2017 9:00 PM 75 57 0 0 7.31
3/19/2017 10:00 PM 74 58 0 0 5.68
3/19/2017 11:00 PM 73 61 0 0 6.67
Data Summary 73 67 19.36 0.00 6.08